sensor_id;sensor_type;location;lat;lon;timestamp;P1;durP1;ratioP1;P2;durP2;ratioP2
19189;SDS011;9727;50.200;19.038;2023-06-22T00:00:09;11.65;;;8.13;;
19189;SDS011;9727;50.200;19.038;2023-06-22T00:02:37;15.32;;;8.52;;
19189;SDS011;9727;50.200;19.038;2023-06-22T00:05:04;13.20;;;8.15;;
19189;SDS011;9727;50.200;19.038;2023-06-22T00:07:30;11.95;;;7.38;;
19189;SDS011;9727;50.200;19.038;2023-06-22T00:09:57;20.73;;;7.82;;
19189;SDS011;9727;50.200;19.038;2023-06-22T00:12:25;14.77;;;7.40;;
19189;SDS011;9727;50.200;19.038;2023-06-22T00:14:51;10.95;;;7.18;;
19189;SDS011;9727;50.200;19.038;2023-06-22T00:17:18;12.30;;;8.43;;
19189;SDS011;9727;50.200;19.038;2023-06-22T00:19:46;19.08;;;7.82;;
19189;SDS011;9727;50.200;19.038;2023-06-22T00:22:13;13.43;;;7.78;;
19189;SDS011;9727;50.200;19.038;2023-06-22T00:24:39;12.85;;;8.55;;
19189;SDS011;9727;50.200;19.038;2023-06-22T00:27:06;11.57;;;7.82;;
19189;SDS011;9727;50.200;19.038;2023-06-22T00:29:39;12.38;;;7.40;;
19189;SDS011;9727;50.200;19.038;2023-06-22T00:32:06;11.63;;;7.15;;
19189;SDS011;9727;50.200;19.038;2023-06-22T00:34:32;15.57;;;7.75;;
19189;SDS011;9727;50.200;19.038;2023-06-22T00:37:01;13.70;;;7.93;;
19189;SDS011;9727;50.200;19.038;2023-06-22T00:39:28;11.75;;;7.75;;
19189;SDS011;9727;50.200;19.038;2023-06-22T00:41:54;13.30;;;7.25;;
19189;SDS011;9727;50.200;19.038;2023-06-22T00:44:24;13.27;;;7.35;;
19189;SDS011;9727;50.200;19.038;2023-06-22T00:46:53;17.20;;;7.35;;
19189;SDS011;9727;50.200;19.038;2023-06-22T00:49:19;15.57;;;7.90;;
19189;SDS011;9727;50.200;19.038;2023-06-22T00:51:46;11.23;;;7.40;;
19189;SDS011;9727;50.200;19.038;2023-06-22T00:54:12;11.73;;;6.85;;
19189;SDS011;9727;50.200;19.038;2023-06-22T00:56:39;13.48;;;7.18;;
19189;SDS011;9727;50.200;19.038;2023-06-22T00:59:07;11.20;;;6.30;;
19189;SDS011;9727;50.200;19.038;2023-06-22T01:01:37;10.98;;;6.95;;
19189;SDS011;9727;50.200;19.038;2023-06-22T01:04:07;10.95;;;6.70;;
19189;SDS011;9727;50.200;19.038;2023-06-22T01:06:35;16.90;;;7.40;;
19189;SDS011;9727;50.200;19.038;2023-06-22T01:09:06;15.55;;;7.20;;
19189;SDS011;9727;50.200;19.038;2023-06-22T01:11:35;13.45;;;6.40;;
19189;SDS011;9727;50.200;19.038;2023-06-22T01:14:06;11.85;;;6.65;;
19189;SDS011;9727;50.200;19.038;2023-06-22T01:16:34;13.35;;;7.10;;
19189;SDS011;9727;50.200;19.038;2023-06-22T01:19:04;13.18;;;6.80;;
19189;SDS011;9727;50.200;19.038;2023-06-22T01:21:36;12.07;;;6.35;;
19189;SDS011;9727;50.200;19.038;2023-06-22T01:24:08;13.50;;;6.65;;
19189;SDS011;9727;50.200;19.038;2023-06-22T01:26:38;12.35;;;6.20;;
19189;SDS011;9727;50.200;19.038;2023-06-22T01:29:08;12.52;;;6.82;;
19189;SDS011;9727;50.200;19.038;2023-06-22T01:31:38;14.32;;;6.50;;
19189;SDS011;9727;50.200;19.038;2023-06-22T01:34:06;15.35;;;6.93;;
19189;SDS011;9727;50.200;19.038;2023-06-22T01:36:34;10.50;;;6.30;;
19189;SDS011;9727;50.200;19.038;2023-06-22T01:39:10;10.50;;;6.78;;
19189;SDS011;9727;50.200;19.038;2023-06-22T01:41:38;10.45;;;7.18;;
19189;SDS011;9727;50.200;19.038;2023-06-22T01:44:05;10.70;;;6.32;;
19189;SDS011;9727;50.200;19.038;2023-06-22T01:46:36;11.77;;;6.72;;
19189;SDS011;9727;50.200;19.038;2023-06-22T01:49:02;14.05;;;7.20;;
19189;SDS011;9727;50.200;19.038;2023-06-22T01:51:39;13.55;;;6.30;;
19189;SDS011;9727;50.200;19.038;2023-06-22T01:54:06;14.25;;;6.40;;
19189;SDS011;9727;50.200;19.038;2023-06-22T01:56:33;14.07;;;6.32;;
19189;SDS011;9727;50.200;19.038;2023-06-22T01:59:07;10.02;;;6.10;;
19189;SDS011;9727;50.200;19.038;2023-06-22T02:01:39;13.10;;;6.22;;
19189;SDS011;9727;50.200;19.038;2023-06-22T02:04:08;14.80;;;6.45;;
19189;SDS011;9727;50.200;19.038;2023-06-22T02:06:37;16.58;;;6.85;;
19189;SDS011;9727;50.200;19.038;2023-06-22T02:09:06;14.63;;;6.43;;
19189;SDS011;9727;50.200;19.038;2023-06-22T02:11:33;14.23;;;6.20;;
19189;SDS011;9727;50.200;19.038;2023-06-22T02:14:01;15.65;;;6.28;;
19189;SDS011;9727;50.200;19.038;2023-06-22T02:16:27;8.88;;;5.72;;
19189;SDS011;9727;50.200;19.038;2023-06-22T02:18:56;17.42;;;6.20;;
19189;SDS011;9727;50.200;19.038;2023-06-22T02:21:27;10.70;;;5.70;;
19189;SDS011;9727;50.200;19.038;2023-06-22T02:23:53;11.98;;;6.50;;
19189;SDS011;9727;50.200;19.038;2023-06-22T02:26:21;13.48;;;6.50;;
19189;SDS011;9727;50.200;19.038;2023-06-22T02:28:52;14.50;;;6.57;;
19189;SDS011;9727;50.200;19.038;2023-06-22T02:31:19;12.95;;;6.30;;
19189;SDS011;9727;50.200;19.038;2023-06-22T02:33:47;13.48;;;6.60;;
19189;SDS011;9727;50.200;19.038;2023-06-22T02:36:15;11.93;;;6.20;;
19189;SDS011;9727;50.200;19.038;2023-06-22T02:38:47;12.80;;;6.07;;
19189;SDS011;9727;50.200;19.038;2023-06-22T02:41:14;16.27;;;7.00;;
19189;SDS011;9727;50.200;19.038;2023-06-22T02:43:43;10.68;;;6.20;;
19189;SDS011;9727;50.200;19.038;2023-06-22T02:46:10;13.27;;;6.00;;
19189;SDS011;9727;50.200;19.038;2023-06-22T02:48:36;10.77;;;6.13;;
19189;SDS011;9727;50.200;19.038;2023-06-22T02:51:33;10.88;;;6.03;;
19189;SDS011;9727;50.200;19.038;2023-06-22T02:54:00;12.18;;;5.68;;
19189;SDS011;9727;50.200;19.038;2023-06-22T02:56:28;11.48;;;5.47;;
19189;SDS011;9727;50.200;19.038;2023-06-22T02:58:55;16.77;;;6.55;;
19189;SDS011;9727;50.200;19.038;2023-06-22T03:01:27;13.63;;;6.10;;
19189;SDS011;9727;50.200;19.038;2023-06-22T03:03:55;12.75;;;5.80;;
19189;SDS011;9727;50.200;19.038;2023-06-22T03:06:23;13.90;;;6.20;;
19189;SDS011;9727;50.200;19.038;2023-06-22T03:08:57;11.30;;;6.50;;
19189;SDS011;9727;50.200;19.038;2023-06-22T03:11:24;12.73;;;6.95;;
19189;SDS011;9727;50.200;19.038;2023-06-22T03:13:50;12.05;;;7.05;;
19189;SDS011;9727;50.200;19.038;2023-06-22T03:16:18;15.13;;;7.97;;
19189;SDS011;9727;50.200;19.038;2023-06-22T03:18:44;15.80;;;7.70;;
19189;SDS011;9727;50.200;19.038;2023-06-22T03:21:11;13.55;;;8.32;;
19189;SDS011;9727;50.200;19.038;2023-06-22T03:23:39;14.70;;;7.70;;
19189;SDS011;9727;50.200;19.038;2023-06-22T03:26:05;13.65;;;8.48;;
19189;SDS011;9727;50.200;19.038;2023-06-22T03:28:32;16.00;;;6.97;;
19189;SDS011;9727;50.200;19.038;2023-06-22T03:30:58;12.93;;;7.07;;
19189;SDS011;9727;50.200;19.038;2023-06-22T03:33:25;12.90;;;6.63;;
19189;SDS011;9727;50.200;19.038;2023-06-22T03:35:51;19.20;;;8.15;;
19189;SDS011;9727;50.200;19.038;2023-06-22T03:38:18;11.63;;;7.55;;
19189;SDS011;9727;50.200;19.038;2023-06-22T03:41:03;18.23;;;8.50;;
19189;SDS011;9727;50.200;19.038;2023-06-22T03:43:30;15.68;;;7.40;;
19189;SDS011;9727;50.200;19.038;2023-06-22T03:45:56;12.73;;;7.20;;
19189;SDS011;9727;50.200;19.038;2023-06-22T03:48:23;15.27;;;7.88;;
19189;SDS011;9727;50.200;19.038;2023-06-22T03:50:49;16.48;;;8.57;;
19189;SDS011;9727;50.200;19.038;2023-06-22T03:53:16;15.68;;;8.13;;
19189;SDS011;9727;50.200;19.038;2023-06-22T03:55:47;15.98;;;8.63;;
19189;SDS011;9727;50.200;19.038;2023-06-22T03:58:16;16.73;;;7.50;;
19189;SDS011;9727;50.200;19.038;2023-06-22T04:00:44;14.20;;;7.28;;
19189;SDS011;9727;50.200;19.038;2023-06-22T04:03:10;10.32;;;7.35;;
19189;SDS011;9727;50.200;19.038;2023-06-22T04:05:38;10.27;;;6.97;;
19189;SDS011;9727;50.200;19.038;2023-06-22T04:08:04;15.32;;;8.73;;
19189;SDS011;9727;50.200;19.038;2023-06-22T04:10:31;15.00;;;7.03;;
19189;SDS011;9727;50.200;19.038;2023-06-22T04:12:57;11.35;;;7.38;;
19189;SDS011;9727;50.200;19.038;2023-06-22T04:15:25;11.75;;;6.85;;
19189;SDS011;9727;50.200;19.038;2023-06-22T04:17:53;12.30;;;7.63;;
19189;SDS011;9727;50.200;19.038;2023-06-22T04:20:23;11.95;;;7.75;;
19189;SDS011;9727;50.200;19.038;2023-06-22T04:22:51;14.57;;;8.32;;
19189;SDS011;9727;50.200;19.038;2023-06-22T04:25:17;12.95;;;8.55;;
19189;SDS011;9727;50.200;19.038;2023-06-22T04:27:45;15.00;;;7.82;;
19189;SDS011;9727;50.200;19.038;2023-06-22T04:30:11;11.40;;;8.35;;
19189;SDS011;9727;50.200;19.038;2023-06-22T04:32:42;13.32;;;8.15;;
19189;SDS011;9727;50.200;19.038;2023-06-22T04:35:09;17.92;;;9.25;;
19189;SDS011;9727;50.200;19.038;2023-06-22T04:37:36;15.25;;;8.65;;
19189;SDS011;9727;50.200;19.038;2023-06-22T04:40:03;13.80;;;8.20;;
19189;SDS011;9727;50.200;19.038;2023-06-22T04:42:30;18.30;;;8.68;;
19189;SDS011;9727;50.200;19.038;2023-06-22T04:44:57;12.75;;;8.20;;
19189;SDS011;9727;50.200;19.038;2023-06-22T04:47:23;15.18;;;9.55;;
19189;SDS011;9727;50.200;19.038;2023-06-22T04:49:51;14.90;;;10.00;;
19189;SDS011;9727;50.200;19.038;2023-06-22T04:52:18;11.40;;;9.65;;
19189;SDS011;9727;50.200;19.038;2023-06-22T04:54:45;17.60;;;9.73;;
19189;SDS011;9727;50.200;19.038;2023-06-22T04:57:15;17.00;;;11.95;;
19189;SDS011;9727;50.200;19.038;2023-06-22T04:59:42;22.05;;;14.55;;
19189;SDS011;9727;50.200;19.038;2023-06-22T05:02:10;19.95;;;12.40;;
19189;SDS011;9727;50.200;19.038;2023-06-22T05:04:37;20.15;;;14.55;;
19189;SDS011;9727;50.200;19.038;2023-06-22T05:07:05;22.10;;;12.82;;
19189;SDS011;9727;50.200;19.038;2023-06-22T05:09:32;17.95;;;10.93;;
19189;SDS011;9727;50.200;19.038;2023-06-22T05:11:59;18.10;;;12.18;;
19189;SDS011;9727;50.200;19.038;2023-06-22T05:14:27;19.10;;;12.95;;
19189;SDS011;9727;50.200;19.038;2023-06-22T05:16:54;17.60;;;12.77;;
19189;SDS011;9727;50.200;19.038;2023-06-22T05:19:23;20.38;;;12.73;;
19189;SDS011;9727;50.200;19.038;2023-06-22T05:21:50;19.17;;;14.13;;
19189;SDS011;9727;50.200;19.038;2023-06-22T05:24:18;23.15;;;15.80;;
19189;SDS011;9727;50.200;19.038;2023-06-22T05:26:45;26.50;;;17.02;;
19189;SDS011;9727;50.200;19.038;2023-06-22T05:29:11;26.08;;;17.27;;
19189;SDS011;9727;50.200;19.038;2023-06-22T05:31:38;25.05;;;18.80;;
19189;SDS011;9727;50.200;19.038;2023-06-22T05:34:05;26.38;;;19.75;;
19189;SDS011;9727;50.200;19.038;2023-06-22T05:36:32;25.38;;;18.73;;
19189;SDS011;9727;50.200;19.038;2023-06-22T05:38:59;26.55;;;20.23;;
19189;SDS011;9727;50.200;19.038;2023-06-22T05:41:38;23.88;;;19.35;;
19189;SDS011;9727;50.200;19.038;2023-06-22T05:44:04;25.02;;;18.98;;
19189;SDS011;9727;50.200;19.038;2023-06-22T05:46:31;25.00;;;18.60;;
19189;SDS011;9727;50.200;19.038;2023-06-22T05:48:57;24.73;;;19.15;;
19189;SDS011;9727;50.200;19.038;2023-06-22T05:51:24;21.85;;;19.02;;
19189;SDS011;9727;50.200;19.038;2023-06-22T05:53:50;21.35;;;18.13;;
19189;SDS011;9727;50.200;19.038;2023-06-22T05:56:22;26.70;;;19.60;;
19189;SDS011;9727;50.200;19.038;2023-06-22T05:58:50;20.40;;;17.90;;
19189;SDS011;9727;50.200;19.038;2023-06-22T06:01:16;24.27;;;19.63;;
19189;SDS011;9727;50.200;19.038;2023-06-22T06:03:43;23.13;;;20.63;;
19189;SDS011;9727;50.200;19.038;2023-06-22T06:06:09;25.70;;;20.70;;
19189;SDS011;9727;50.200;19.038;2023-06-22T06:08:36;22.08;;;19.20;;
19189;SDS011;9727;50.200;19.038;2023-06-22T06:11:03;25.95;;;20.90;;
19189;SDS011;9727;50.200;19.038;2023-06-22T06:13:29;25.50;;;19.83;;
19189;SDS011;9727;50.200;19.038;2023-06-22T06:15:57;24.08;;;21.02;;
19189;SDS011;9727;50.200;19.038;2023-06-22T06:18:24;27.52;;;19.10;;
19189;SDS011;9727;50.200;19.038;2023-06-22T06:20:51;26.92;;;22.13;;
19189;SDS011;9727;50.200;19.038;2023-06-22T06:23:18;24.00;;;20.27;;
19189;SDS011;9727;50.200;19.038;2023-06-22T06:25:44;22.55;;;20.13;;
19189;SDS011;9727;50.200;19.038;2023-06-22T06:28:11;26.60;;;21.98;;
19189;SDS011;9727;50.200;19.038;2023-06-22T06:30:37;23.15;;;20.75;;
19189;SDS011;9727;50.200;19.038;2023-06-22T06:33:05;23.10;;;20.65;;
19189;SDS011;9727;50.200;19.038;2023-06-22T06:35:33;23.15;;;19.92;;
19189;SDS011;9727;50.200;19.038;2023-06-22T06:38:00;25.10;;;20.33;;
19189;SDS011;9727;50.200;19.038;2023-06-22T06:40:27;23.77;;;20.67;;
19189;SDS011;9727;50.200;19.038;2023-06-22T06:42:54;22.65;;;19.48;;
19189;SDS011;9727;50.200;19.038;2023-06-22T06:45:21;22.95;;;20.50;;
19189;SDS011;9727;50.200;19.038;2023-06-22T06:47:49;23.13;;;20.02;;
19189;SDS011;9727;50.200;19.038;2023-06-22T06:50:17;21.85;;;19.45;;
19189;SDS011;9727;50.200;19.038;2023-06-22T06:52:44;23.02;;;19.73;;
19189;SDS011;9727;50.200;19.038;2023-06-22T06:55:10;24.20;;;21.80;;
19189;SDS011;9727;50.200;19.038;2023-06-22T06:57:38;29.02;;;22.20;;
19189;SDS011;9727;50.200;19.038;2023-06-22T07:00:06;22.52;;;20.13;;
19189;SDS011;9727;50.200;19.038;2023-06-22T07:02:36;22.80;;;20.50;;
19189;SDS011;9727;50.200;19.038;2023-06-22T07:05:02;24.35;;;21.58;;
19189;SDS011;9727;50.200;19.038;2023-06-22T07:07:31;26.25;;;21.13;;
19189;SDS011;9727;50.200;19.038;2023-06-22T07:09:57;27.23;;;22.52;;
19189;SDS011;9727;50.200;19.038;2023-06-22T07:12:24;23.02;;;20.50;;
19189;SDS011;9727;50.200;19.038;2023-06-22T07:14:51;24.30;;;20.95;;
19189;SDS011;9727;50.200;19.038;2023-06-22T07:17:17;24.80;;;19.25;;
19189;SDS011;9727;50.200;19.038;2023-06-22T07:19:45;22.33;;;19.70;;
19189;SDS011;9727;50.200;19.038;2023-06-22T07:22:11;22.00;;;18.65;;
19189;SDS011;9727;50.200;19.038;2023-06-22T07:24:39;22.05;;;18.10;;
19189;SDS011;9727;50.200;19.038;2023-06-22T07:27:06;18.67;;;16.77;;
19189;SDS011;9727;50.200;19.038;2023-06-22T07:29:32;24.73;;;17.17;;
19189;SDS011;9727;50.200;19.038;2023-06-22T07:31:59;20.83;;;16.17;;
19189;SDS011;9727;50.200;19.038;2023-06-22T07:34:26;20.30;;;15.98;;
19189;SDS011;9727;50.200;19.038;2023-06-22T07:36:52;16.63;;;14.57;;
19189;SDS011;9727;50.200;19.038;2023-06-22T07:39:19;21.67;;;14.65;;
19189;SDS011;9727;50.200;19.038;2023-06-22T07:41:52;15.50;;;13.93;;
19189;SDS011;9727;50.200;19.038;2023-06-22T07:44:18;17.85;;;14.45;;
19189;SDS011;9727;50.200;19.038;2023-06-22T07:46:49;14.40;;;11.68;;
19189;SDS011;9727;50.200;19.038;2023-06-22T07:49:16;16.40;;;12.13;;
19189;SDS011;9727;50.200;19.038;2023-06-22T07:51:43;20.98;;;12.05;;
19189;SDS011;9727;50.200;19.038;2023-06-22T07:54:09;14.07;;;12.60;;
19189;SDS011;9727;50.200;19.038;2023-06-22T07:56:36;14.07;;;12.02;;
19189;SDS011;9727;50.200;19.038;2023-06-22T07:59:04;20.17;;;13.10;;
19189;SDS011;9727;50.200;19.038;2023-06-22T08:01:30;16.20;;;13.43;;
19189;SDS011;9727;50.200;19.038;2023-06-22T08:03:57;18.65;;;15.60;;
19189;SDS011;9727;50.200;19.038;2023-06-22T08:06:23;15.90;;;13.57;;
19189;SDS011;9727;50.200;19.038;2023-06-22T08:08:50;15.02;;;12.10;;
19189;SDS011;9727;50.200;19.038;2023-06-22T08:11:17;14.20;;;12.70;;
19189;SDS011;9727;50.200;19.038;2023-06-22T08:13:44;17.02;;;12.65;;
19189;SDS011;9727;50.200;19.038;2023-06-22T08:16:12;13.40;;;11.85;;
19189;SDS011;9727;50.200;19.038;2023-06-22T08:18:38;13.80;;;12.27;;
19189;SDS011;9727;50.200;19.038;2023-06-22T08:21:05;13.70;;;10.70;;
19189;SDS011;9727;50.200;19.038;2023-06-22T08:23:32;12.68;;;10.50;;
19189;SDS011;9727;50.200;19.038;2023-06-22T08:25:58;11.80;;;10.05;;
19189;SDS011;9727;50.200;19.038;2023-06-22T08:28:25;11.00;;;9.57;;
19189;SDS011;9727;50.200;19.038;2023-06-22T08:30:51;10.20;;;9.00;;
19189;SDS011;9727;50.200;19.038;2023-06-22T08:33:19;10.68;;;9.27;;
19189;SDS011;9727;50.200;19.038;2023-06-22T08:35:48;12.02;;;8.60;;
19189;SDS011;9727;50.200;19.038;2023-06-22T08:38:15;9.70;;;8.70;;
19189;SDS011;9727;50.200;19.038;2023-06-22T08:40:43;9.10;;;8.20;;
19189;SDS011;9727;50.200;19.038;2023-06-22T08:43:10;9.73;;;8.73;;
19189;SDS011;9727;50.200;19.038;2023-06-22T08:45:36;10.00;;;8.82;;
19189;SDS011;9727;50.200;19.038;2023-06-22T08:48:03;10.48;;;9.38;;
19189;SDS011;9727;50.200;19.038;2023-06-22T08:50:31;9.50;;;8.50;;
19189;SDS011;9727;50.200;19.038;2023-06-22T08:52:58;8.63;;;7.70;;
19189;SDS011;9727;50.200;19.038;2023-06-22T08:55:24;11.77;;;9.15;;
19189;SDS011;9727;50.200;19.038;2023-06-22T08:57:51;9.15;;;8.18;;
19189;SDS011;9727;50.200;19.038;2023-06-22T09:00:18;10.43;;;9.20;;
19189;SDS011;9727;50.200;19.038;2023-06-22T09:02:45;11.25;;;9.20;;
19189;SDS011;9727;50.200;19.038;2023-06-22T09:05:11;9.60;;;8.60;;
19189;SDS011;9727;50.200;19.038;2023-06-22T09:07:40;9.48;;;8.43;;
19189;SDS011;9727;50.200;19.038;2023-06-22T09:10:07;9.73;;;8.23;;
19189;SDS011;9727;50.200;19.038;2023-06-22T09:12:34;10.07;;;8.90;;
19189;SDS011;9727;50.200;19.038;2023-06-22T09:15:03;10.43;;;8.60;;
19189;SDS011;9727;50.200;19.038;2023-06-22T09:17:29;9.52;;;8.52;;
19189;SDS011;9727;50.200;19.038;2023-06-22T09:19:56;8.88;;;7.97;;
19189;SDS011;9727;50.200;19.038;2023-06-22T09:22:24;11.93;;;8.55;;
19189;SDS011;9727;50.200;19.038;2023-06-22T09:24:55;10.63;;;8.50;;
19189;SDS011;9727;50.200;19.038;2023-06-22T09:27:22;8.55;;;7.75;;
19189;SDS011;9727;50.200;19.038;2023-06-22T09:29:49;9.25;;;7.88;;
19189;SDS011;9727;50.200;19.038;2023-06-22T09:32:15;9.20;;;8.30;;
19189;SDS011;9727;50.200;19.038;2023-06-22T09:34:42;9.68;;;8.68;;
19189;SDS011;9727;50.200;19.038;2023-06-22T09:37:08;9.65;;;8.43;;
19189;SDS011;9727;50.200;19.038;2023-06-22T09:39:35;11.07;;;8.10;;
19189;SDS011;9727;50.200;19.038;2023-06-22T09:42:03;10.73;;;8.70;;
19189;SDS011;9727;50.200;19.038;2023-06-22T09:44:31;11.05;;;8.13;;
19189;SDS011;9727;50.200;19.038;2023-06-22T09:46:57;8.55;;;7.75;;
19189;SDS011;9727;50.200;19.038;2023-06-22T09:49:24;10.32;;;8.30;;
19189;SDS011;9727;50.200;19.038;2023-06-22T09:51:51;8.77;;;7.88;;
19189;SDS011;9727;50.200;19.038;2023-06-22T09:54:17;11.52;;;8.00;;
19189;SDS011;9727;50.200;19.038;2023-06-22T09:56:44;11.00;;;7.70;;
19189;SDS011;9727;50.200;19.038;2023-06-22T09:59:12;11.57;;;8.02;;
19189;SDS011;9727;50.200;19.038;2023-06-22T10:01:38;8.75;;;7.85;;
19189;SDS011;9727;50.200;19.038;2023-06-22T10:04:05;8.90;;;8.00;;
19189;SDS011;9727;50.200;19.038;2023-06-22T10:06:31;10.07;;;8.25;;
19189;SDS011;9727;50.200;19.038;2023-06-22T10:08:58;9.50;;;8.02;;
19189;SDS011;9727;50.200;19.038;2023-06-22T10:11:24;9.27;;;8.10;;
19189;SDS011;9727;50.200;19.038;2023-06-22T10:13:55;8.73;;;7.28;;
19189;SDS011;9727;50.200;19.038;2023-06-22T10:16:29;9.98;;;7.55;;
19189;SDS011;9727;50.200;19.038;2023-06-22T10:18:56;9.52;;;7.47;;
19189;SDS011;9727;50.200;19.038;2023-06-22T10:21:24;9.68;;;7.80;;
19189;SDS011;9727;50.200;19.038;2023-06-22T10:23:57;9.82;;;7.68;;
19189;SDS011;9727;50.200;19.038;2023-06-22T10:26:24;10.43;;;7.00;;
19189;SDS011;9727;50.200;19.038;2023-06-22T10:28:53;8.23;;;7.43;;
19189;SDS011;9727;50.200;19.038;2023-06-22T10:31:21;8.30;;;7.30;;
19189;SDS011;9727;50.200;19.038;2023-06-22T10:33:49;9.27;;;8.00;;
19189;SDS011;9727;50.200;19.038;2023-06-22T10:36:16;10.52;;;7.88;;
19189;SDS011;9727;50.200;19.038;2023-06-22T10:38:42;8.52;;;7.60;;
19189;SDS011;9727;50.200;19.038;2023-06-22T10:41:09;9.65;;;7.75;;
19189;SDS011;9727;50.200;19.038;2023-06-22T10:43:35;9.68;;;7.82;;
19189;SDS011;9727;50.200;19.038;2023-06-22T10:46:02;8.18;;;7.43;;
19189;SDS011;9727;50.200;19.038;2023-06-22T10:48:28;9.60;;;7.70;;
19189;SDS011;9727;50.200;19.038;2023-06-22T10:50:56;11.35;;;7.55;;
19189;SDS011;9727;50.200;19.038;2023-06-22T10:53:23;8.48;;;7.43;;
19189;SDS011;9727;50.200;19.038;2023-06-22T10:55:50;8.75;;;7.85;;
19189;SDS011;9727;50.200;19.038;2023-06-22T10:58:18;8.40;;;7.60;;
19189;SDS011;9727;50.200;19.038;2023-06-22T11:00:45;7.65;;;6.78;;
19189;SDS011;9727;50.200;19.038;2023-06-22T11:03:11;8.40;;;7.00;;
19189;SDS011;9727;50.200;19.038;2023-06-22T11:05:39;9.73;;;7.47;;
19189;SDS011;9727;50.200;19.038;2023-06-22T11:08:08;7.80;;;7.00;;
19189;SDS011;9727;50.200;19.038;2023-06-22T11:10:34;8.00;;;7.20;;
19189;SDS011;9727;50.200;19.038;2023-06-22T11:13:01;10.13;;;7.13;;
19189;SDS011;9727;50.200;19.038;2023-06-22T11:15:29;7.70;;;6.90;;
19189;SDS011;9727;50.200;19.038;2023-06-22T11:17:55;8.38;;;7.47;;
19189;SDS011;9727;50.200;19.038;2023-06-22T11:20:22;8.70;;;7.10;;
19189;SDS011;9727;50.200;19.038;2023-06-22T11:22:48;10.63;;;7.50;;
19189;SDS011;9727;50.200;19.038;2023-06-22T11:25:16;9.82;;;7.30;;
19189;SDS011;9727;50.200;19.038;2023-06-22T11:27:43;10.90;;;8.10;;
19189;SDS011;9727;50.200;19.038;2023-06-22T11:30:10;9.23;;;7.18;;
19189;SDS011;9727;50.200;19.038;2023-06-22T11:32:36;9.60;;;8.50;;
19189;SDS011;9727;50.200;19.038;2023-06-22T11:35:06;8.82;;;7.93;;
19189;SDS011;9727;50.200;19.038;2023-06-22T11:37:32;8.52;;;7.63;;
19189;SDS011;9727;50.200;19.038;2023-06-22T11:39:59;10.32;;;8.02;;
19189;SDS011;9727;50.200;19.038;2023-06-22T11:42:27;10.40;;;7.82;;
19189;SDS011;9727;50.200;19.038;2023-06-22T11:44:53;9.98;;;8.63;;
19189;SDS011;9727;50.200;19.038;2023-06-22T11:47:23;10.35;;;7.88;;
19189;SDS011;9727;50.200;19.038;2023-06-22T11:49:49;8.90;;;7.78;;
19189;SDS011;9727;50.200;19.038;2023-06-22T11:52:16;8.73;;;7.72;;
19189;SDS011;9727;50.200;19.038;2023-06-22T11:54:44;8.27;;;7.47;;
19189;SDS011;9727;50.200;19.038;2023-06-22T11:57:11;9.23;;;7.80;;
19189;SDS011;9727;50.200;19.038;2023-06-22T11:59:39;8.43;;;7.22;;
19189;SDS011;9727;50.200;19.038;2023-06-22T12:02:07;7.90;;;7.10;;
19189;SDS011;9727;50.200;19.038;2023-06-22T12:04:34;8.35;;;7.55;;
19189;SDS011;9727;50.200;19.038;2023-06-22T12:07:01;7.88;;;7.07;;
19189;SDS011;9727;50.200;19.038;2023-06-22T12:09:28;13.05;;;7.63;;
19189;SDS011;9727;50.200;19.038;2023-06-22T12:11:55;9.43;;;7.53;;
19189;SDS011;9727;50.200;19.038;2023-06-22T12:14:22;8.65;;;7.50;;
19189;SDS011;9727;50.200;19.038;2023-06-22T12:16:49;9.85;;;7.45;;
19189;SDS011;9727;50.200;19.038;2023-06-22T12:19:16;9.45;;;8.23;;
19189;SDS011;9727;50.200;19.038;2023-06-22T12:21:43;8.00;;;7.28;;
19189;SDS011;9727;50.200;19.038;2023-06-22T12:24:11;9.05;;;7.63;;
19189;SDS011;9727;50.200;19.038;2023-06-22T12:26:37;9.05;;;8.00;;
19189;SDS011;9727;50.200;19.038;2023-06-22T12:29:10;8.70;;;7.82;;
19189;SDS011;9727;50.200;19.038;2023-06-22T12:31:36;10.57;;;8.70;;
19189;SDS011;9727;50.200;19.038;2023-06-22T12:34:14;9.82;;;8.93;;
19189;SDS011;9727;50.200;19.038;2023-06-22T12:36:40;8.55;;;7.65;;
19189;SDS011;9727;50.200;19.038;2023-06-22T12:39:07;9.02;;;8.07;;
19189;SDS011;9727;50.200;19.038;2023-06-22T12:41:33;11.35;;;8.23;;
19189;SDS011;9727;50.200;19.038;2023-06-22T12:44:09;9.15;;;8.25;;
19189;SDS011;9727;50.200;19.038;2023-06-22T12:46:36;9.82;;;8.63;;
19189;SDS011;9727;50.200;19.038;2023-06-22T12:49:04;9.02;;;7.97;;
19189;SDS011;9727;50.200;19.038;2023-06-22T12:51:31;11.55;;;8.25;;
19189;SDS011;9727;50.200;19.038;2023-06-22T12:53:59;8.50;;;7.70;;
19189;SDS011;9727;50.200;19.038;2023-06-22T12:56:25;9.00;;;8.10;;
19189;SDS011;9727;50.200;19.038;2023-06-22T12:58:52;8.88;;;7.90;;
19189;SDS011;9727;50.200;19.038;2023-06-22T13:01:18;8.95;;;8.05;;
19189;SDS011;9727;50.200;19.038;2023-06-22T13:03:45;10.55;;;8.57;;
19189;SDS011;9727;50.200;19.038;2023-06-22T13:06:13;10.82;;;8.93;;
19189;SDS011;9727;50.200;19.038;2023-06-22T13:08:39;8.77;;;7.88;;
19189;SDS011;9727;50.200;19.038;2023-06-22T13:11:06;8.52;;;7.72;;
19189;SDS011;9727;50.200;19.038;2023-06-22T13:13:32;13.57;;;8.95;;
19189;SDS011;9727;50.200;19.038;2023-06-22T13:16:07;10.20;;;8.82;;
19189;SDS011;9727;50.200;19.038;2023-06-22T13:18:33;9.05;;;8.13;;
19189;SDS011;9727;50.200;19.038;2023-06-22T13:21:00;9.35;;;8.45;;
19189;SDS011;9727;50.200;19.038;2023-06-22T13:23:29;10.55;;;9.50;;
19189;SDS011;9727;50.200;19.038;2023-06-22T13:25:55;11.52;;;9.25;;
19189;SDS011;9727;50.200;19.038;2023-06-22T13:28:22;9.65;;;8.68;;
19189;SDS011;9727;50.200;19.038;2023-06-22T13:30:48;9.50;;;7.65;;
19189;SDS011;9727;50.200;19.038;2023-06-22T13:33:15;10.52;;;8.65;;
19189;SDS011;9727;50.200;19.038;2023-06-22T13:35:41;11.57;;;8.73;;
19189;SDS011;9727;50.200;19.038;2023-06-22T13:38:08;10.38;;;8.43;;
19189;SDS011;9727;50.200;19.038;2023-06-22T13:40:36;9.80;;;8.70;;
19189;SDS011;9727;50.200;19.038;2023-06-22T13:43:04;10.23;;;8.48;;
19189;SDS011;9727;50.200;19.038;2023-06-22T13:45:30;11.13;;;8.82;;
19189;SDS011;9727;50.200;19.038;2023-06-22T13:47:57;9.52;;;8.52;;
19189;SDS011;9727;50.200;19.038;2023-06-22T13:50:24;12.70;;;8.85;;
19189;SDS011;9727;50.200;19.038;2023-06-22T13:52:50;10.05;;;9.07;;
19189;SDS011;9727;50.200;19.038;2023-06-22T13:55:17;9.43;;;8.32;;
19189;SDS011;9727;50.200;19.038;2023-06-22T13:57:47;10.45;;;8.35;;
19189;SDS011;9727;50.200;19.038;2023-06-22T14:00:14;10.23;;;8.48;;
19189;SDS011;9727;50.200;19.038;2023-06-22T14:02:40;9.20;;;8.30;;
19189;SDS011;9727;50.200;19.038;2023-06-22T14:05:07;11.18;;;9.00;;
19189;SDS011;9727;50.200;19.038;2023-06-22T14:07:34;8.85;;;7.85;;
19189;SDS011;9727;50.200;19.038;2023-06-22T14:10:01;9.50;;;8.60;;
19189;SDS011;9727;50.200;19.038;2023-06-22T14:12:27;9.60;;;8.60;;
19189;SDS011;9727;50.200;19.038;2023-06-22T14:14:55;11.32;;;8.43;;
19189;SDS011;9727;50.200;19.038;2023-06-22T14:17:22;10.02;;;9.07;;
19189;SDS011;9727;50.200;19.038;2023-06-22T14:19:51;14.68;;;9.38;;
19189;SDS011;9727;50.200;19.038;2023-06-22T14:22:18;10.30;;;9.30;;
19189;SDS011;9727;50.200;19.038;2023-06-22T14:24:45;9.80;;;8.70;;
19189;SDS011;9727;50.200;19.038;2023-06-22T14:27:11;9.43;;;8.40;;
19189;SDS011;9727;50.200;19.038;2023-06-22T14:29:38;11.73;;;8.98;;
19189;SDS011;9727;50.200;19.038;2023-06-22T14:32:06;8.93;;;8.07;;
19189;SDS011;9727;50.200;19.038;2023-06-22T14:34:33;9.90;;;9.00;;
19189;SDS011;9727;50.200;19.038;2023-06-22T14:37:01;10.13;;;9.13;;